createdAt,value
2023-04-24T00:01:08.852Z,19.20
2023-04-24T00:06:12.441Z,25.83
2023-04-24T00:11:16.071Z,18.60
2023-04-24T00:16:21.204Z,17.15
2023-04-24T00:21:26.921Z,21.10
2023-04-24T00:26:30.452Z,19.35
2023-04-24T00:31:36.041Z,22.00
2023-04-24T00:36:39.783Z,17.13
2023-04-24T00:41:43.291Z,30.25
2023-04-24T00:46:52.899Z,16.17
2023-04-24T00:51:56.466Z,19.98
2023-04-24T00:56:59.987Z,17.83
2023-04-24T01:02:04.855Z,21.38
2023-04-24T01:12:15.362Z,24.02
2023-04-24T01:17:20.366Z,23.40
2023-04-24T01:22:25.460Z,26.55
2023-04-24T01:27:29.200Z,17.50
2023-04-24T01:32:33.380Z,18.50
2023-04-24T01:37:39.405Z,21.80
2023-04-24T01:42:44.136Z,20.88
2023-04-24T01:47:48.389Z,17.20
2023-04-24T01:52:53.298Z,16.17
2023-04-24T02:03:03.087Z,21.30
2023-04-24T02:08:08.152Z,20.85
2023-04-24T02:18:14.829Z,19.65
2023-04-24T02:23:19.714Z,18.13
2023-04-24T02:33:26.405Z,17.27
2023-04-24T02:38:31.470Z,22.17
2023-04-24T02:43:35.206Z,16.08
2023-04-24T02:48:38.693Z,20.15
2023-04-24T02:53:43.662Z,23.38
2023-04-24T03:03:50.855Z,17.83
2023-04-24T03:08:56.018Z,18.33
2023-04-24T03:13:59.512Z,19.17
2023-04-24T03:19:03.669Z,18.05
2023-04-24T03:24:08.650Z,15.17
2023-04-24T03:29:12.229Z,22.38
2023-04-24T03:34:15.719Z,18.23
2023-04-24T03:39:20.779Z,17.80
2023-04-24T03:44:24.309Z,14.77
2023-04-24T03:49:27.860Z,20.17
2023-04-24T03:54:32.726Z,18.95
2023-04-24T04:04:39.653Z,20.65
2023-04-24T04:09:45.010Z,18.57
2023-04-24T04:14:48.662Z,20.10
2023-04-24T04:19:52.225Z,18.98
2023-04-24T04:24:57.654Z,17.70
2023-04-24T04:30:02.610Z,19.08
2023-04-24T04:35:08.619Z,14.38
2023-04-24T04:40:13.839Z,15.75
2023-04-24T04:45:17.912Z,18.10
2023-04-24T04:55:27.020Z,15.27
2023-04-24T05:00:36.181Z,13.68
2023-04-24T05:05:41.690Z,15.57
2023-04-24T05:10:47.319Z,15.90
2023-04-24T05:15:51.050Z,15.27
2023-04-24T05:20:54.570Z,17.00
2023-04-24T05:25:59.671Z,12.93
2023-04-24T05:31:03.607Z,13.18
2023-04-24T05:36:08.864Z,10.65
2023-04-24T05:41:13.723Z,12.73
2023-04-24T05:46:17.269Z,10.40
2023-04-24T05:51:20.814Z,10.68
2023-04-24T05:56:26.651Z,12.32
2023-04-24T06:01:30.813Z,12.68
2023-04-24T06:06:34.334Z,12.55
2023-04-24T06:11:39.341Z,9.27
2023-04-24T06:16:44.801Z,11.18
2023-04-24T06:21:48.475Z,11.73
2023-04-24T06:26:53.355Z,11.75
2023-04-24T06:31:56.843Z,10.52
2023-04-24T06:37:00.610Z,12.00
2023-04-24T06:42:05.712Z,14.77
2023-04-24T06:47:09.902Z,14.48
2023-04-24T06:52:13.630Z,10.77
2023-04-24T06:57:18.696Z,13.98
2023-04-24T07:02:22.438Z,10.07
2023-04-24T07:07:26.141Z,12.63
2023-04-24T07:12:31.132Z,10.13
2023-04-24T07:17:34.664Z,11.65
2023-04-24T07:22:38.156Z,10.32
2023-04-24T07:27:43.092Z,9.45
2023-04-24T07:32:46.715Z,8.82
2023-04-24T07:37:50.659Z,12.02
2023-04-24T07:42:55.558Z,13.40
2023-04-24T07:47:59.252Z,13.82
2023-04-24T07:53:02.932Z,10.43
2023-04-24T07:58:07.858Z,9.90
2023-04-24T08:03:11.714Z,7.82
2023-04-24T08:08:15.916Z,8.95
2023-04-24T08:13:20.978Z,9.23
2023-04-24T08:18:24.901Z,10.88
2023-04-24T08:23:29.996Z,9.13
2023-04-24T08:28:34.914Z,7.50
2023-04-24T08:33:38.405Z,10.02
2023-04-24T08:38:43.217Z,9.40
2023-04-24T08:43:49.585Z,7.03
2023-04-24T08:48:54.142Z,7.70
2023-04-24T08:53:58.763Z,9.23
2023-04-24T08:59:04.425Z,8.85
2023-04-24T09:04:10.126Z,8.50
2023-04-24T09:09:13.945Z,8.50
2023-04-24T09:19:23.583Z,5.72
2023-04-24T09:24:27.127Z,6.90
2023-04-24T09:29:33.988Z,8.55
2023-04-24T09:34:37.528Z,7.78
2023-04-24T09:39:41.366Z,8.45
2023-04-24T09:44:46.725Z,5.30
2023-04-24T09:49:50.340Z,6.28
2023-04-24T09:54:56.101Z,5.50
2023-04-24T10:00:01.101Z,10.00
2023-04-24T10:05:05.188Z,8.07
2023-04-24T10:10:10.224Z,5.85
2023-04-24T10:15:16.677Z,7.90
2023-04-24T10:20:24.129Z,9.82
2023-04-24T10:25:29.579Z,7.38
2023-04-24T10:30:37.258Z,7.47
2023-04-24T10:35:46.636Z,7.75
2023-04-24T10:40:50.327Z,9.43
2023-04-24T10:46:05.628Z,8.73
2023-04-24T10:51:15.193Z,7.70
2023-04-24T10:56:19.397Z,7.18
2023-04-24T11:01:28.748Z,7.88
2023-04-24T11:06:33.919Z,7.22
2023-04-24T11:11:41.181Z,9.82
2023-04-24T11:16:48.049Z,12.30
2023-04-24T11:21:57.699Z,8.25
2023-04-24T11:27:07.855Z,7.93
2023-04-24T11:32:20.959Z,8.48
2023-04-24T11:37:26.215Z,8.02
2023-04-24T11:42:30.958Z,7.15
2023-04-24T11:47:35.905Z,7.45
2023-04-24T11:52:41.176Z,8.48
2023-04-24T11:57:45.878Z,7.82
2023-04-24T12:02:51.681Z,8.88
2023-04-24T12:07:56.301Z,7.18
2023-04-24T12:13:01.594Z,10.40
2023-04-24T12:18:06.714Z,7.05
2023-04-24T12:23:10.362Z,12.85
2023-04-24T12:28:15.224Z,6.38
2023-04-24T12:33:21.919Z,9.18
2023-04-24T12:38:27.691Z,6.32
2023-04-24T12:43:31.284Z,6.57
2023-04-24T12:48:36.272Z,9.10
2023-04-24T12:53:40.114Z,7.47
2023-04-24T12:58:43.839Z,9.10
2023-04-24T13:03:48.922Z,7.28
2023-04-24T13:08:52.735Z,8.13
2023-04-24T13:13:56.941Z,6.53
2023-04-24T13:19:01.784Z,7.72
2023-04-24T13:24:06.088Z,5.75
2023-04-24T13:29:09.974Z,7.85
2023-04-24T13:34:15.037Z,5.78
2023-04-24T13:39:18.592Z,6.30
2023-04-24T13:44:23.483Z,6.97
2023-04-24T13:49:29.354Z,7.50
2023-04-24T13:54:32.894Z,7.82
2023-04-24T13:59:36.451Z,5.20
2023-04-24T14:04:41.832Z,11.48
2023-04-24T14:09:45.677Z,6.10
2023-04-24T14:14:50.368Z,7.63
2023-04-24T14:19:57.415Z,6.30
2023-04-24T14:25:01.068Z,6.15
2023-04-24T14:30:05.587Z,11.82
2023-04-24T14:35:11.660Z,5.35
2023-04-24T14:40:29.797Z,7.00
2023-04-24T14:45:39.642Z,10.65
2023-04-24T14:50:44.722Z,7.68
2023-04-24T14:55:51.352Z,7.40
2023-04-24T15:00:55.639Z,5.90
2023-04-24T15:06:00.721Z,8.60
2023-04-24T15:11:04.345Z,5.57
2023-04-24T15:16:08.419Z,9.73
2023-04-24T15:21:14.328Z,8.65
2023-04-24T15:26:17.866Z,7.90
2023-04-24T15:31:23.435Z,9.20
2023-04-24T15:36:28.759Z,14.52
2023-04-24T15:41:32.788Z,8.05
2023-04-24T15:46:37.363Z,10.35
2023-04-24T15:51:42.484Z,13.32
2023-04-24T15:56:46.074Z,10.23
2023-04-24T16:01:50.016Z,7.77
2023-04-24T16:06:55.250Z,6.45
2023-04-24T16:11:58.820Z,7.97
2023-04-24T16:17:05.756Z,9.17
2023-04-24T16:22:10.650Z,9.20
2023-04-24T16:27:14.112Z,11.43
2023-04-24T16:32:17.667Z,15.77
2023-04-24T16:37:22.717Z,12.80
2023-04-24T16:42:26.586Z,15.63
2023-04-24T16:47:30.265Z,9.00
2023-04-24T16:52:35.321Z,13.93
2023-04-24T16:57:38.969Z,10.60
2023-04-24T17:02:42.562Z,12.57
2023-04-24T17:07:47.574Z,14.33
2023-04-24T17:12:51.226Z,14.30
2023-04-24T17:17:55.125Z,15.97
2023-04-24T17:23:00.099Z,17.38
2023-04-24T17:28:03.849Z,12.88
2023-04-24T17:33:07.431Z,10.47
2023-04-24T17:38:12.341Z,10.23
2023-04-24T17:43:18.274Z,12.18
2023-04-24T17:48:22.493Z,10.00
2023-04-24T17:53:27.692Z,15.65
2023-04-24T17:58:31.801Z,12.98
2023-04-24T18:03:35.413Z,9.15
2023-04-24T18:08:40.517Z,14.20
2023-04-24T18:13:44.160Z,18.23
2023-04-24T18:18:47.926Z,18.35
2023-04-24T18:23:53.100Z,18.30
2023-04-24T18:28:56.681Z,14.85
2023-04-24T18:34:00.401Z,13.30
2023-04-24T18:39:05.484Z,17.60
2023-04-24T18:44:09.347Z,16.05
2023-04-24T18:49:12.819Z,20.70
2023-04-24T18:54:17.875Z,10.85
2023-04-24T18:59:21.555Z,10.13
2023-04-24T19:04:25.232Z,13.23
2023-04-24T19:09:30.141Z,13.80
2023-04-24T19:14:33.693Z,11.77
2023-04-24T19:19:37.385Z,12.75
2023-04-24T19:24:42.269Z,9.65
2023-04-24T19:29:46.174Z,11.45
2023-04-24T19:34:49.778Z,17.85
2023-04-24T19:39:54.788Z,13.48
2023-04-24T19:44:58.236Z,11.13
2023-04-24T19:50:01.725Z,13.40
2023-04-24T19:55:09.518Z,11.55
2023-04-24T20:00:14.231Z,11.48
2023-04-24T20:05:17.992Z,13.60
2023-04-24T20:10:23.064Z,16.40
2023-04-24T20:15:26.699Z,12.57
2023-04-24T20:20:30.252Z,14.63
2023-04-24T20:25:36.340Z,11.68
2023-04-24T20:30:39.911Z,16.80
2023-04-24T20:35:43.398Z,9.88
2023-04-24T20:45:55.940Z,14.95
2023-04-24T20:50:59.437Z,14.38
2023-04-24T20:56:04.874Z,15.32
2023-04-24T21:01:08.708Z,14.63
2023-04-24T21:06:12.232Z,16.07
2023-04-24T21:11:17.116Z,16.38
2023-04-24T21:16:21.059Z,20.75
2023-04-24T21:21:25.370Z,17.10
2023-04-24T21:26:30.391Z,18.58
2023-04-24T21:31:33.981Z,16.60
2023-04-24T21:36:37.513Z,13.37
2023-04-24T21:41:42.866Z,12.30
2023-04-24T21:46:46.411Z,25.60
2023-04-24T21:51:49.957Z,20.83
2023-04-24T21:56:54.888Z,19.95
2023-04-24T22:01:58.529Z,15.23
2023-04-24T22:07:02.578Z,16.67
2023-04-24T22:12:08.007Z,21.23
2023-04-24T22:17:11.451Z,13.55
2023-04-24T22:22:15.174Z,20.42
2023-04-24T22:27:20.198Z,14.30
2023-04-24T22:32:23.882Z,16.90
2023-04-24T22:37:27.643Z,20.57
2023-04-24T22:42:32.626Z,19.88
2023-04-24T22:47:36.171Z,16.02
2023-04-24T22:52:41.219Z,15.35
2023-04-24T22:57:46.179Z,13.82
2023-04-24T23:02:49.858Z,18.20
2023-04-24T23:07:53.435Z,14.20
2023-04-24T23:12:58.499Z,14.30
2023-04-24T23:18:02.148Z,13.10
2023-04-24T23:23:05.875Z,11.70
2023-04-24T23:28:10.858Z,10.88
2023-04-24T23:33:15.680Z,11.88
2023-04-24T23:38:19.227Z,13.82
2023-04-24T23:43:24.269Z,20.88
2023-04-24T23:48:27.932Z,13.32
2023-04-24T23:53:31.604Z,10.48
2023-04-24T23:58:36.969Z,9.90
